createdAt,value
2023-01-01T00:00:57.684Z,3.85
2023-01-01T00:02:00.410Z,3.55
2023-01-01T00:03:03.043Z,3.51
2023-01-01T00:04:05.990Z,3.45
2023-01-01T00:05:09.401Z,3.65
2023-01-01T00:06:12.289Z,3.47
2023-01-01T00:07:15.243Z,3.30
2023-01-01T00:08:18.317Z,3.52
2023-01-01T00:09:21.315Z,3.31
2023-01-01T00:10:24.384Z,2.93
2023-01-01T00:11:27.169Z,3.01
2023-01-01T00:12:30.049Z,2.92
2023-01-01T00:13:32.807Z,3.36
2023-01-01T00:14:35.866Z,3.15
2023-01-01T00:15:39.060Z,3.32
2023-01-01T00:16:42.290Z,3.27
2023-01-01T00:17:45.615Z,3.39
2023-01-01T00:18:48.405Z,3.49
2023-01-01T00:19:51.468Z,3.38
2023-01-01T00:20:54.835Z,3.39
2023-01-01T00:21:57.657Z,3.91
2023-01-01T00:23:00.324Z,3.95
2023-01-01T00:24:03.273Z,3.69
2023-01-01T00:25:06.278Z,3.83
2023-01-01T00:26:09.946Z,3.58
2023-01-01T00:27:13.138Z,3.83
2023-01-01T00:28:16.218Z,3.06
2023-01-01T00:29:19.393Z,3.54
2023-01-01T00:30:22.876Z,3.82
2023-01-01T00:31:25.995Z,3.52
2023-01-01T00:32:28.928Z,3.26
2023-01-01T00:33:31.829Z,3.08
2023-01-01T00:34:34.713Z,3.25
2023-01-01T00:35:37.594Z,3.44
2023-01-01T00:36:40.670Z,3.56
2023-01-01T00:37:46.742Z,3.72
2023-01-01T00:38:48.134Z,3.56
2023-01-01T00:39:50.916Z,3.72
2023-01-01T00:40:53.779Z,3.77
2023-01-01T00:41:56.651Z,3.46
2023-01-01T00:42:59.741Z,3.32
2023-01-01T00:44:02.709Z,3.55
2023-01-01T00:45:05.691Z,3.71
2023-01-01T00:46:08.662Z,3.38
2023-01-01T00:47:11.648Z,3.63
2023-01-01T00:48:14.612Z,3.68
2023-01-01T00:49:17.696Z,3.48
2023-01-01T00:50:20.879Z,3.51
2023-01-01T00:51:24.059Z,3.58
2023-01-01T00:52:27.445Z,3.32
2023-01-01T00:53:30.434Z,3.59
2023-01-01T00:54:33.512Z,3.52
2023-01-01T00:55:36.579Z,3.72
2023-01-01T00:56:39.771Z,3.41
2023-01-01T00:57:43.062Z,3.83
2023-01-01T00:58:46.231Z,3.59
2023-01-01T00:59:50.742Z,3.79
2023-01-01T01:00:53.768Z,3.62
2023-01-01T01:01:57.040Z,3.62
2023-01-01T01:03:00.285Z,3.90
2023-01-01T01:04:03.364Z,4.13
2023-01-01T01:05:06.210Z,3.93
2023-01-01T01:06:09.045Z,4.32
2023-01-01T01:07:12.019Z,4.10
2023-01-01T01:08:14.988Z,3.65
2023-01-01T01:09:17.865Z,4.05
2023-01-01T01:10:20.926Z,3.82
2023-01-01T01:11:23.898Z,3.61
2023-01-01T01:12:26.887Z,4.08
2023-01-01T01:13:30.363Z,3.86
2023-01-01T01:14:33.165Z,3.83
2023-01-01T01:15:35.969Z,4.18
2023-01-01T01:16:39.057Z,3.45
2023-01-01T01:17:41.985Z,3.08
2023-01-01T01:18:45.456Z,3.26
2023-01-01T01:19:48.534Z,3.08
2023-01-01T01:20:51.627Z,3.23
2023-01-01T01:21:54.411Z,3.18
2023-01-01T01:22:57.467Z,3.32
2023-01-01T01:24:02.079Z,3.52
2023-01-01T01:25:06.179Z,3.21
2023-01-01T01:26:10.292Z,2.94
2023-01-01T01:27:13.090Z,2.99
2023-01-01T01:28:16.146Z,3.27
2023-01-01T01:29:19.012Z,3.24
2023-01-01T01:30:21.796Z,3.35
2023-01-01T01:31:25.041Z,3.46
2023-01-01T01:32:27.842Z,3.40
2023-01-01T01:33:30.635Z,3.43
2023-01-01T01:34:33.421Z,3.47
2023-01-01T01:35:36.097Z,3.47
2023-01-01T01:36:39.256Z,3.30
2023-01-01T01:37:41.842Z,3.27
2023-01-01T01:38:44.700Z,3.55
2023-01-01T01:39:53.473Z,3.31
2023-01-01T01:40:52.281Z,3.31
2023-01-01T01:41:55.265Z,3.55
2023-01-01T01:42:58.249Z,3.56
2023-01-01T01:44:01.020Z,3.42
2023-01-01T01:45:04.101Z,3.38
2023-01-01T01:46:07.018Z,3.47
2023-01-01T01:47:09.841Z,3.73
2023-01-01T01:48:12.441Z,3.35
2023-01-01T01:49:15.804Z,3.65
2023-01-01T01:50:19.484Z,3.19
2023-01-01T01:51:22.561Z,3.17
2023-01-01T01:52:25.958Z,3.37
2023-01-01T01:53:29.031Z,3.46
2023-01-01T01:54:32.418Z,3.26
2023-01-01T01:55:35.802Z,3.76
2023-01-01T01:56:38.781Z,3.69
2023-01-01T01:57:41.480Z,4.02
2023-01-01T01:58:44.417Z,3.75
2023-01-01T01:59:47.417Z,3.35
2023-01-01T02:00:50.363Z,3.53
2023-01-01T02:01:53.583Z,3.63
2023-01-01T02:02:56.507Z,3.62
2023-01-01T02:03:59.818Z,3.71
2023-01-01T02:05:03.024Z,3.48
2023-01-01T02:06:06.595Z,3.73
2023-01-01T02:07:10.073Z,3.52
2023-01-01T02:08:13.495Z,3.50
2023-01-01T02:09:16.649Z,3.47
2023-01-01T02:10:20.236Z,3.69
2023-01-01T02:11:23.643Z,3.50
2023-01-01T02:12:27.024Z,3.63
2023-01-01T02:13:30.449Z,3.41
2023-01-01T02:14:33.589Z,3.00
2023-01-01T02:15:36.755Z,3.09
2023-01-01T02:16:40.266Z,3.61
2023-01-01T02:17:43.426Z,3.39
2023-01-01T02:18:46.517Z,3.31
2023-01-01T02:19:49.705Z,3.51
2023-01-01T02:20:52.673Z,3.05
2023-01-01T02:21:55.769Z,3.38
2023-01-01T02:23:04.055Z,3.51
2023-01-01T02:24:03.397Z,3.28
2023-01-01T02:25:06.427Z,3.42
2023-01-01T02:26:09.566Z,2.94
2023-01-01T02:27:12.585Z,3.48
2023-01-01T02:28:15.867Z,2.72
2023-01-01T02:29:19.255Z,3.14
2023-01-01T02:30:22.467Z,2.70
2023-01-01T02:31:25.661Z,3.13
2023-01-01T02:32:29.029Z,3.18
2023-01-01T02:33:32.078Z,3.18
2023-01-01T02:34:35.469Z,2.81
2023-01-01T02:35:38.965Z,3.15
2023-01-01T02:36:42.261Z,2.80
2023-01-01T02:37:46.172Z,3.21
2023-01-01T02:38:49.123Z,2.96
2023-01-01T02:39:52.409Z,3.00
2023-01-01T02:40:55.490Z,3.22
2023-01-01T02:41:58.359Z,3.41
2023-01-01T02:43:01.966Z,3.16
2023-01-01T02:45:05.355Z,2.99
2023-01-01T02:46:08.381Z,2.91
2023-01-01T02:47:11.445Z,3.02
2023-01-01T02:48:14.484Z,3.24
2023-01-01T02:49:17.674Z,3.32
2023-01-01T02:50:20.856Z,3.76
2023-01-01T02:51:24.021Z,3.18
2023-01-01T02:52:27.100Z,3.18
2023-01-01T02:53:30.202Z,3.01
2023-01-01T02:54:33.278Z,3.35
2023-01-01T02:55:36.248Z,3.33
2023-01-01T02:56:39.429Z,3.50
2023-01-01T02:57:42.524Z,3.61
2023-01-01T02:58:45.888Z,3.57
2023-01-01T02:59:48.984Z,3.39
2023-01-01T03:00:52.162Z,3.53
2023-01-01T03:01:55.403Z,2.98
2023-01-01T03:02:58.433Z,3.38
2023-01-01T03:04:01.798Z,3.46
2023-01-01T03:05:04.620Z,3.05
2023-01-01T03:06:07.547Z,3.31
2023-01-01T03:07:10.425Z,3.72
2023-01-01T03:08:13.294Z,3.54
2023-01-01T03:09:16.176Z,3.56
2023-01-01T03:10:19.070Z,3.53
2023-01-01T03:11:21.949Z,3.45
2023-01-01T03:12:24.906Z,3.19
2023-01-01T03:13:27.876Z,3.39
2023-01-01T03:14:30.843Z,3.34
2023-01-01T03:15:33.818Z,3.52
2023-01-01T03:16:36.800Z,3.41
2023-01-01T03:17:39.885Z,3.42
2023-01-01T03:18:42.868Z,3.67
2023-01-01T03:19:46.311Z,3.81
2023-01-01T03:20:49.340Z,3.94
2023-01-01T03:21:52.108Z,4.04
2023-01-01T03:22:57.936Z,3.69
2023-01-01T03:24:00.929Z,3.48
2023-01-01T03:25:03.703Z,3.59
2023-01-01T03:26:06.469Z,3.77
2023-01-01T03:27:09.456Z,3.82
2023-01-01T03:28:12.239Z,3.98
2023-01-01T03:29:15.108Z,4.16
2023-01-01T03:30:18.387Z,3.58
2023-01-01T03:31:21.678Z,3.63
2023-01-01T03:32:24.839Z,4.25
2023-01-01T03:33:28.031Z,4.35
2023-01-01T03:34:30.995Z,4.35
2023-01-01T03:35:34.279Z,4.03
2023-01-01T03:36:37.389Z,4.19
2023-01-01T03:37:40.139Z,4.05
2023-01-01T03:38:42.827Z,3.88
2023-01-01T03:39:45.577Z,4.08
2023-01-01T03:40:49.018Z,4.52
2023-01-01T03:41:52.159Z,4.13
2023-01-01T03:42:55.127Z,4.25
2023-01-01T03:43:58.114Z,4.10
2023-01-01T03:45:01.213Z,3.98
2023-01-01T03:46:04.375Z,3.84
2023-01-01T03:47:07.375Z,3.70
2023-01-01T03:48:10.312Z,3.61
2023-01-01T03:49:13.288Z,3.58
2023-01-01T03:50:16.203Z,3.78
2023-01-01T03:51:19.388Z,4.05
2023-01-01T03:52:22.256Z,3.69
2023-01-01T03:53:24.987Z,3.91
2023-01-01T03:54:27.887Z,3.81
2023-01-01T03:55:30.642Z,3.73
2023-01-01T03:56:33.871Z,3.67
2023-01-01T03:57:36.963Z,3.41
2023-01-01T03:58:39.866Z,3.65
2023-01-01T03:59:42.958Z,3.80
2023-01-01T04:00:46.258Z,3.67
2023-01-01T04:01:50.236Z,4.15
2023-01-01T04:02:53.348Z,3.76
2023-01-01T04:03:56.462Z,3.87
2023-01-01T04:04:59.680Z,4.31
2023-01-01T04:06:02.554Z,3.72
2023-01-01T04:07:14.720Z,3.77
2023-01-01T04:08:10.457Z,4.02
2023-01-01T04:09:13.579Z,3.71
2023-01-01T04:10:16.926Z,3.52
2023-01-01T04:11:20.051Z,3.65
2023-01-01T04:12:23.490Z,4.02
2023-01-01T04:13:26.699Z,3.70
2023-01-01T04:14:29.870Z,3.52
2023-01-01T04:15:32.937Z,3.59
2023-01-01T04:16:36.309Z,3.50
2023-01-01T04:17:39.418Z,3.70
2023-01-01T04:18:42.480Z,3.66
2023-01-01T04:19:48.842Z,3.49
2023-01-01T04:20:49.867Z,3.81
2023-01-01T04:21:52.642Z,4.08
2023-01-01T04:22:55.717Z,3.96
2023-01-01T04:23:58.862Z,3.43
2023-01-01T04:25:01.909Z,3.78
2023-01-01T04:26:05.167Z,3.92
2023-01-01T04:27:08.240Z,3.74
2023-01-01T04:28:11.533Z,3.67
2023-01-01T04:29:14.298Z,3.88
2023-01-01T04:30:17.460Z,3.95
2023-01-01T04:31:20.355Z,3.85
2023-01-01T04:32:23.035Z,3.29
2023-01-01T04:33:25.911Z,3.49
2023-01-01T04:34:28.814Z,3.37
2023-01-01T04:35:31.649Z,2.98
2023-01-01T04:36:34.543Z,3.08
2023-01-01T04:37:37.315Z,3.18
2023-01-01T04:38:40.789Z,3.54
2023-01-01T04:39:44.146Z,3.24
2023-01-01T04:40:47.043Z,3.25
2023-01-01T04:41:49.920Z,3.40
2023-01-01T04:42:53.018Z,3.03
2023-01-01T04:43:56.384Z,3.32
2023-01-01T04:44:59.470Z,3.63
2023-01-01T04:46:02.725Z,3.51
2023-01-01T04:47:05.829Z,3.53
2023-01-01T04:48:08.859Z,3.78
2023-01-01T04:49:11.988Z,3.78
2023-01-01T04:50:14.977Z,3.35
2023-01-01T04:51:18.046Z,3.24
2023-01-01T04:52:21.131Z,3.74
2023-01-01T04:53:24.231Z,3.28
2023-01-01T04:54:27.910Z,3.43
2023-01-01T04:55:30.972Z,3.46
2023-01-01T04:56:33.767Z,3.45
2023-01-01T04:57:36.540Z,3.22
2023-01-01T04:58:39.621Z,3.42
2023-01-01T04:59:42.804Z,3.40
2023-01-01T05:00:45.772Z,3.37
2023-01-01T05:01:48.901Z,3.34
2023-01-01T05:02:51.977Z,3.01
2023-01-01T05:03:55.083Z,3.32
2023-01-01T05:04:58.297Z,3.46
2023-01-01T05:06:01.169Z,3.05
2023-01-01T05:07:03.552Z,3.15
2023-01-01T05:08:05.759Z,3.03
2023-01-01T05:09:08.061Z,3.41
2023-01-01T05:10:10.329Z,3.45
2023-01-01T05:11:12.471Z,3.37
2023-01-01T05:12:14.958Z,3.72
2023-01-01T05:13:17.507Z,3.44
2023-01-01T05:14:19.927Z,3.22
2023-01-01T05:15:22.563Z,3.55
2023-01-01T05:16:25.030Z,3.96
2023-01-01T05:17:27.588Z,3.90
2023-01-01T05:18:30.143Z,3.67
2023-01-01T05:19:32.668Z,3.43
2023-01-01T05:20:35.557Z,3.59
2023-01-01T05:21:38.110Z,3.67
2023-01-01T05:22:40.602Z,3.52
2023-01-01T05:23:43.013Z,3.73
2023-01-01T05:24:45.503Z,3.86
2023-01-01T05:25:47.976Z,4.23
2023-01-01T05:26:50.401Z,4.00
2023-01-01T05:27:52.789Z,3.84
2023-01-01T05:28:55.230Z,3.66
2023-01-01T05:29:57.477Z,3.57
2023-01-01T05:31:00.155Z,4.02
2023-01-01T05:32:02.754Z,3.86
2023-01-01T05:33:05.319Z,3.98
2023-01-01T05:35:07.861Z,3.87
2023-01-01T05:36:10.239Z,3.52
2023-01-01T05:37:12.413Z,3.94
2023-01-01T05:38:14.619Z,3.72
2023-01-01T05:39:17.176Z,3.59
2023-01-01T05:40:19.881Z,3.25
2023-01-01T05:41:22.340Z,3.94
2023-01-01T05:42:24.561Z,3.72
2023-01-01T05:43:26.817Z,3.82
2023-01-01T05:44:29.321Z,4.03
2023-01-01T05:45:31.838Z,3.81
2023-01-01T05:46:34.415Z,4.08
2023-01-01T05:47:36.860Z,3.63
2023-01-01T05:48:39.258Z,3.91
2023-01-01T05:49:41.727Z,3.57
2023-01-01T05:50:44.271Z,3.81
2023-01-01T05:51:46.858Z,3.68
2023-01-01T05:52:49.081Z,3.74
2023-01-01T05:53:51.279Z,3.83
2023-01-01T05:54:53.530Z,3.70
2023-01-01T05:55:55.758Z,3.70
2023-01-01T05:56:58.402Z,3.62
2023-01-01T05:58:00.974Z,4.02
2023-01-01T05:59:03.520Z,3.54
2023-01-01T06:00:06.053Z,3.78
2023-01-01T06:01:08.495Z,3.38
2023-01-01T06:02:11.045Z,3.49
2023-01-01T06:03:13.589Z,3.63
2023-01-01T06:04:15.881Z,3.93
2023-01-01T06:05:18.128Z,3.98
2023-01-01T06:06:20.318Z,3.95
2023-01-01T06:07:22.575Z,3.65
2023-01-01T06:08:24.850Z,3.98
2023-01-01T06:09:27.331Z,4.05
2023-01-01T06:10:29.809Z,4.42
2023-01-01T06:11:32.239Z,4.03
2023-01-01T06:12:34.867Z,3.72
2023-01-01T06:13:37.077Z,3.78
2023-01-01T06:14:39.300Z,3.62
2023-01-01T06:15:41.520Z,3.82
2023-01-01T06:16:43.820Z,3.53
2023-01-01T06:17:46.211Z,3.82
2023-01-01T06:18:48.724Z,3.85
2023-01-01T06:19:51.153Z,4.07
2023-01-01T06:20:53.627Z,4.05
2023-01-01T06:21:56.098Z,3.83
2023-01-01T06:22:58.704Z,3.71
2023-01-01T06:24:01.291Z,3.57
2023-01-01T06:25:03.810Z,3.92
2023-01-01T06:26:06.298Z,3.80
2023-01-01T06:27:08.873Z,3.78
2023-01-01T06:28:11.468Z,3.76
2023-01-01T06:29:13.935Z,4.00
2023-01-01T06:30:16.396Z,4.16
2023-01-01T06:31:18.915Z,4.28
2023-01-01T06:32:21.406Z,4.06
2023-01-01T06:33:23.871Z,4.00
2023-01-01T06:34:26.256Z,4.12
2023-01-01T06:35:28.921Z,4.21
2023-01-01T06:36:31.409Z,4.12
2023-01-01T06:37:33.911Z,4.67
2023-01-01T06:38:36.343Z,4.65
2023-01-01T06:39:38.872Z,4.07
2023-01-01T06:40:41.353Z,3.86
2023-01-01T06:41:43.854Z,3.92
2023-01-01T06:42:46.062Z,3.72
2023-01-01T06:43:48.411Z,4.40
2023-01-01T06:44:50.568Z,4.28
2023-01-01T06:45:52.804Z,4.06
2023-01-01T06:46:55.002Z,4.24
2023-01-01T06:47:57.232Z,3.75
2023-01-01T06:48:59.798Z,4.14
2023-01-01T06:50:02.277Z,4.76
2023-01-01T06:51:04.852Z,4.83
2023-01-01T06:52:07.693Z,4.34
2023-01-01T06:53:10.094Z,4.91
2023-01-01T06:54:12.772Z,4.31
2023-01-01T06:55:15.329Z,4.12
2023-01-01T06:56:17.916Z,4.28
2023-01-01T06:57:20.301Z,4.53
2023-01-01T06:58:22.718Z,4.09
2023-01-01T06:59:25.324Z,4.49
2023-01-01T07:00:27.836Z,4.32
2023-01-01T07:01:30.510Z,4.35
2023-01-01T07:02:33.401Z,4.74
2023-01-01T07:03:35.959Z,4.61
2023-01-01T07:04:38.425Z,4.67
2023-01-01T07:05:40.947Z,4.72
2023-01-01T07:06:43.499Z,4.70
2023-01-01T07:07:45.701Z,4.79
2023-01-01T07:08:48.278Z,4.54
2023-01-01T07:09:50.867Z,5.03
2023-01-01T07:10:53.038Z,5.11
2023-01-01T07:11:55.267Z,5.06
2023-01-01T07:12:57.536Z,5.12
2023-01-01T07:13:59.730Z,5.66
2023-01-01T07:15:02.279Z,4.92
2023-01-01T07:16:12.091Z,5.46
2023-01-01T07:17:08.384Z,4.79
2023-01-01T07:18:10.615Z,4.90
2023-01-01T07:19:13.070Z,4.94
2023-01-01T07:20:15.438Z,5.07
2023-01-01T07:21:17.674Z,4.79
2023-01-01T07:22:19.904Z,5.02
2023-01-01T07:23:22.120Z,5.01
2023-01-01T07:24:24.575Z,4.84
2023-01-01T07:25:26.945Z,5.30
2023-01-01T07:26:29.218Z,4.78
2023-01-01T07:27:31.542Z,4.43
2023-01-01T07:28:33.786Z,4.92
2023-01-01T07:29:35.960Z,4.87
2023-01-01T07:30:38.342Z,4.99
2023-01-01T07:31:40.727Z,4.53
2023-01-01T07:32:43.000Z,4.59
2023-01-01T07:33:45.201Z,4.39
2023-01-01T07:34:50.818Z,5.06
2023-01-01T07:35:51.524Z,4.91
2023-01-01T07:36:53.854Z,4.83
2023-01-01T07:37:56.080Z,4.63
2023-01-01T07:38:58.273Z,4.79
2023-01-01T07:40:00.466Z,4.69
2023-01-01T07:41:02.699Z,4.50
2023-01-01T07:42:10.787Z,4.10
2023-01-01T07:43:09.028Z,4.40
2023-01-01T07:44:11.434Z,4.40
2023-01-01T07:45:14.135Z,4.05
2023-01-01T07:46:16.803Z,4.58
2023-01-01T07:47:19.318Z,4.42
2023-01-01T07:48:21.797Z,4.26
2023-01-01T07:49:24.245Z,4.15
2023-01-01T07:50:26.735Z,3.93
2023-01-01T07:51:29.328Z,4.13
2023-01-01T07:52:32.048Z,4.31
2023-01-01T07:53:34.553Z,4.37
2023-01-01T07:54:36.940Z,4.45
2023-01-01T07:55:39.413Z,4.92
2023-01-01T07:56:42.022Z,4.41
2023-01-01T07:57:44.547Z,4.35
2023-01-01T07:58:47.048Z,4.33
2023-01-01T07:59:49.491Z,4.89
2023-01-01T08:00:51.988Z,5.02
2023-01-01T08:01:54.733Z,4.38
2023-01-01T08:02:57.448Z,4.61
2023-01-01T08:04:00.141Z,4.72
2023-01-01T08:05:02.556Z,4.33
2023-01-01T08:06:04.952Z,4.42
2023-01-01T08:07:07.808Z,4.98
2023-01-01T08:08:10.044Z,4.95
2023-01-01T08:09:12.234Z,4.55
2023-01-01T08:10:14.437Z,4.62
2023-01-01T08:11:16.642Z,4.82
2023-01-01T08:12:19.051Z,4.88
2023-01-01T08:13:21.618Z,4.86
2023-01-01T08:14:24.032Z,5.27
2023-01-01T08:15:26.479Z,5.83
2023-01-01T08:16:28.931Z,5.03
2023-01-01T08:17:31.544Z,4.70
2023-01-01T08:18:33.718Z,5.21
2023-01-01T08:19:36.229Z,5.26
2023-01-01T08:20:38.587Z,5.53
2023-01-01T08:21:41.115Z,4.70
2023-01-01T08:22:43.772Z,5.19
2023-01-01T08:23:46.234Z,5.47
2023-01-01T08:24:48.651Z,4.64
2023-01-01T08:25:51.115Z,4.59
2023-01-01T08:26:53.296Z,4.72
2023-01-01T08:27:55.866Z,5.33
2023-01-01T08:28:58.126Z,4.47
2023-01-01T08:30:00.707Z,5.18
2023-01-01T08:31:03.261Z,4.69
2023-01-01T08:32:05.780Z,4.70
2023-01-01T08:33:08.526Z,5.08
2023-01-01T08:34:10.976Z,5.05
2023-01-01T08:35:13.431Z,4.72
2023-01-01T08:36:15.700Z,5.35
2023-01-01T08:37:17.884Z,5.33
2023-01-01T08:38:20.261Z,4.96
2023-01-01T08:39:22.498Z,5.03
2023-01-01T08:40:24.730Z,4.87
2023-01-01T08:41:26.994Z,5.18
2023-01-01T08:42:29.466Z,5.85
2023-01-01T08:43:32.055Z,5.48
2023-01-01T08:44:34.604Z,5.00
2023-01-01T08:45:37.088Z,5.04
2023-01-01T08:46:39.605Z,5.11
2023-01-01T08:47:42.070Z,5.51
2023-01-01T08:48:44.706Z,6.12
2023-01-01T08:49:47.114Z,5.88
2023-01-01T08:50:49.537Z,5.00
2023-01-01T08:51:52.037Z,5.28
2023-01-01T08:53:56.986Z,5.33
2023-01-01T08:54:59.295Z,4.38
2023-01-01T08:56:01.498Z,5.13
2023-01-01T08:57:03.755Z,5.24
2023-01-01T08:58:06.018Z,5.12
2023-01-01T08:59:08.400Z,4.48
2023-01-01T09:00:10.786Z,5.80
2023-01-01T09:01:13.207Z,4.93
2023-01-01T09:02:15.972Z,4.95
2023-01-01T09:03:18.475Z,5.03
2023-01-01T09:04:20.936Z,5.03
2023-01-01T09:07:46.555Z,5.39
2023-01-01T09:08:49.011Z,5.35
2023-01-01T09:09:51.670Z,5.72
2023-01-01T09:10:54.093Z,5.55
2023-01-01T09:11:56.513Z,5.06
2023-01-01T09:12:58.972Z,5.49
2023-01-01T09:14:01.430Z,5.20
2023-01-01T09:15:04.062Z,5.33
2023-01-01T09:16:06.816Z,5.35
2023-01-01T09:17:09.287Z,5.07
2023-01-01T09:18:11.742Z,4.68
2023-01-01T09:19:14.171Z,5.23
2023-01-01T09:20:17.788Z,5.56
2023-01-01T09:21:19.985Z,5.26
2023-01-01T09:22:22.218Z,5.31
2023-01-01T09:23:24.440Z,5.32
2023-01-01T09:24:26.646Z,5.22
2023-01-01T09:25:28.985Z,5.13
2023-01-01T09:26:31.207Z,5.26
2023-01-01T09:27:33.673Z,5.25
2023-01-01T09:28:36.145Z,5.77
2023-01-01T09:29:38.624Z,5.28
2023-01-01T09:30:41.113Z,5.22
2023-01-01T09:31:43.553Z,5.01
2023-01-01T09:32:46.294Z,4.88
2023-01-01T09:33:48.812Z,5.40
2023-01-01T09:34:52.656Z,5.39
2023-01-01T09:35:55.322Z,5.33
2023-01-01T09:36:57.830Z,5.28
2023-01-01T09:38:00.247Z,5.42
2023-01-01T09:39:02.720Z,5.65
2023-01-01T09:40:05.258Z,5.62
2023-01-01T09:41:07.820Z,5.05
2023-01-01T09:42:10.279Z,5.35
2023-01-01T09:43:12.686Z,5.40
2023-01-01T09:44:15.219Z,5.01
2023-01-01T09:45:17.858Z,4.65
2023-01-01T09:46:20.501Z,4.83
2023-01-01T09:47:22.996Z,5.32
2023-01-01T09:48:25.430Z,5.39
2023-01-01T09:49:27.913Z,5.08
2023-01-01T09:50:30.304Z,4.84
2023-01-01T09:51:34.343Z,5.02
2023-01-01T09:52:36.562Z,4.81
2023-01-01T09:53:38.854Z,5.08
2023-01-01T09:54:41.064Z,5.42
2023-01-01T09:55:43.298Z,4.95
2023-01-01T09:56:45.710Z,5.22
2023-01-01T09:57:47.900Z,5.23
2023-01-01T09:58:50.373Z,4.58
2023-01-01T09:59:52.823Z,4.58
2023-01-01T10:00:55.315Z,4.79
2023-01-01T10:01:57.934Z,5.29
2023-01-01T10:03:00.283Z,4.74
2023-01-01T10:04:02.782Z,5.02
2023-01-01T10:05:05.260Z,4.85
2023-01-01T10:06:07.667Z,4.84
2023-01-01T10:07:10.315Z,5.42
2023-01-01T10:08:15.850Z,4.60
2023-01-01T10:09:16.771Z,5.34
2023-01-01T10:10:19.313Z,4.71
2023-01-01T10:11:21.807Z,4.43
2023-01-01T10:12:24.191Z,5.28
2023-01-01T10:13:26.607Z,5.13
2023-01-01T10:14:29.205Z,4.63
2023-01-01T10:15:31.563Z,5.22
2023-01-01T10:16:34.049Z,4.44
2023-01-01T10:17:36.496Z,4.73
2023-01-01T10:18:39.042Z,4.97
2023-01-01T10:19:41.192Z,4.75
2023-01-01T10:20:43.471Z,5.00
2023-01-01T10:21:47.447Z,4.90
2023-01-01T10:22:49.445Z,5.28
2023-01-01T10:23:51.666Z,5.43
2023-01-01T10:24:53.857Z,5.18
2023-01-01T10:25:56.008Z,5.12
2023-01-01T10:26:58.398Z,4.97
2023-01-01T10:28:00.910Z,4.83
2023-01-01T10:29:03.380Z,5.00
2023-01-01T10:30:05.875Z,5.27
2023-01-01T10:31:08.346Z,4.39
2023-01-01T10:32:10.796Z,4.66
2023-01-01T10:33:13.357Z,4.79
2023-01-01T10:34:15.818Z,4.92
2023-01-01T10:35:18.268Z,4.93
2023-01-01T10:36:20.758Z,5.13
2023-01-01T10:37:23.213Z,4.82
2023-01-01T10:38:25.707Z,4.83
2023-01-01T10:39:28.450Z,4.82
2023-01-01T10:40:30.883Z,4.77
2023-01-01T10:41:33.345Z,4.87
2023-01-01T10:42:35.741Z,4.47
2023-01-01T10:43:38.221Z,4.87
2023-01-01T10:44:40.611Z,4.62
2023-01-01T10:45:43.110Z,4.71
2023-01-01T10:46:45.631Z,4.39
2023-01-01T10:47:48.114Z,5.08
2023-01-01T10:48:50.959Z,5.08
2023-01-01T10:49:53.568Z,5.08
2023-01-01T10:50:56.833Z,4.65
2023-01-01T10:51:59.120Z,4.96
2023-01-01T10:53:01.338Z,4.99
2023-01-01T10:54:04.044Z,4.71
2023-01-01T10:55:06.227Z,5.02
2023-01-01T10:56:08.424Z,4.84
2023-01-01T10:57:10.730Z,4.80
2023-01-01T10:58:13.164Z,5.18
2023-01-01T10:59:15.755Z,4.98
2023-01-01T11:00:18.331Z,4.87
2023-01-01T11:01:20.921Z,5.09
2023-01-01T11:02:23.664Z,4.81
2023-01-01T11:03:26.407Z,4.52
2023-01-01T11:04:29.042Z,4.63
2023-01-01T11:06:33.771Z,4.66
2023-01-01T11:07:36.332Z,4.92
2023-01-01T11:08:38.756Z,4.62
2023-01-01T11:09:44.981Z,4.83
2023-01-01T11:10:45.297Z,4.69
2023-01-01T11:11:47.857Z,5.24
2023-01-01T11:13:06.553Z,4.88
2023-01-01T11:13:54.297Z,4.91
2023-01-01T11:14:57.291Z,4.73
2023-01-01T11:15:59.999Z,5.11
2023-01-01T11:17:02.564Z,5.39
2023-01-01T11:18:04.980Z,4.73
2023-01-01T11:19:07.384Z,5.21
2023-01-01T11:22:14.685Z,5.56
2023-01-01T11:23:17.230Z,4.90
2023-01-01T11:24:19.748Z,5.17
2023-01-01T11:25:23.188Z,5.41
2023-01-01T11:26:28.412Z,4.86
2023-01-01T11:27:30.859Z,4.75
2023-01-01T11:28:33.310Z,4.93
2023-01-01T11:29:35.560Z,5.87
2023-01-01T11:30:37.965Z,4.97
2023-01-01T11:31:40.192Z,5.27
2023-01-01T11:55:30.435Z,5.22
2023-01-01T11:56:32.849Z,5.49
2023-01-01T11:57:35.064Z,5.77
2023-01-01T11:58:37.259Z,5.76
2023-01-01T11:59:39.641Z,5.26
2023-01-01T12:00:42.071Z,5.17
2023-01-01T12:01:44.763Z,5.14
2023-01-01T12:02:47.271Z,4.79
2023-01-01T12:03:50.367Z,5.02
2023-01-01T12:04:52.872Z,4.53
2023-01-01T12:05:55.290Z,4.37
2023-01-01T12:06:57.793Z,4.88
2023-01-01T12:08:00.043Z,5.10
2023-01-01T12:09:02.541Z,4.54
2023-01-01T12:10:05.071Z,4.29
2023-01-01T12:11:07.532Z,4.27
2023-01-01T12:12:10.103Z,4.27
2023-01-01T12:13:12.741Z,4.89
2023-01-01T12:14:15.213Z,5.05
2023-01-01T12:15:17.656Z,4.92
2023-01-01T12:16:19.999Z,4.30
2023-01-01T12:17:22.323Z,4.94
2023-01-01T12:18:24.530Z,4.76
2023-01-01T12:19:26.706Z,4.73
2023-01-01T12:20:28.901Z,4.95
2023-01-01T12:21:31.110Z,5.22
2023-01-01T12:22:33.412Z,5.21
2023-01-01T12:23:35.593Z,4.72
2023-01-01T12:24:38.044Z,4.72
2023-01-01T12:25:40.514Z,4.76
2023-01-01T12:26:42.945Z,4.81
2023-01-01T12:27:53.658Z,5.22
2023-01-01T12:28:56.241Z,4.33
2023-01-01T12:29:58.798Z,4.75
2023-01-01T12:31:01.550Z,4.54
2023-01-01T12:32:04.379Z,4.45
2023-01-01T12:33:08.625Z,4.39
2023-01-01T12:34:11.568Z,4.31
2023-01-01T12:35:14.632Z,4.22
2023-01-01T12:36:17.653Z,4.52
2023-01-01T12:37:20.458Z,4.54
2023-01-01T12:38:23.738Z,4.55
2023-01-01T12:39:26.715Z,4.56
2023-01-01T12:40:29.438Z,4.88
2023-01-01T12:41:32.492Z,4.62
2023-01-01T12:42:35.350Z,4.68
2023-01-01T12:43:38.435Z,4.55
2023-01-01T12:44:41.091Z,4.50
2023-01-01T12:45:43.984Z,4.82
2023-01-01T12:46:46.928Z,4.63
2023-01-01T12:47:49.744Z,4.98
2023-01-01T12:48:52.795Z,5.01
2023-01-01T12:49:55.562Z,5.16
2023-01-01T12:51:04.838Z,4.95
2023-01-01T12:52:02.750Z,4.93
2023-01-01T12:53:05.537Z,4.58
2023-01-01T12:54:08.408Z,4.59
2023-01-01T12:55:11.265Z,4.50
2023-01-01T12:56:16.225Z,4.15
2023-01-01T12:57:18.248Z,4.91
2023-01-01T12:58:21.013Z,4.78
2023-01-01T12:59:23.797Z,4.28
2023-01-01T13:00:26.718Z,4.65
2023-01-01T13:01:33.061Z,4.38
2023-01-01T13:02:33.611Z,4.48
2023-01-01T13:03:36.531Z,4.13
2023-01-01T13:04:39.509Z,4.60
2023-01-01T13:05:42.586Z,4.77
2023-01-01T13:06:45.274Z,4.82
2023-01-01T13:07:48.269Z,4.81
2023-01-01T13:08:50.993Z,4.78
2023-01-01T13:09:54.188Z,4.25
2023-01-01T13:10:57.055Z,4.54
2023-01-01T13:12:00.043Z,4.57
2023-01-01T13:13:02.905Z,4.00
2023-01-01T13:14:05.488Z,4.22
2023-01-01T13:15:08.623Z,4.49
2023-01-01T13:16:11.371Z,4.35
2023-01-01T13:17:14.096Z,4.38
2023-01-01T13:18:16.757Z,4.54
2023-01-01T13:19:19.532Z,4.35
2023-01-01T13:20:22.608Z,4.72
2023-01-01T13:21:25.618Z,4.15
2023-01-01T13:22:28.375Z,4.74
2023-01-01T13:23:31.152Z,4.63
2023-01-01T13:24:33.920Z,4.90
2023-01-01T13:25:36.983Z,4.04
2023-01-01T13:26:39.769Z,4.17
2023-01-01T13:27:42.649Z,4.16
2023-01-01T13:28:45.447Z,4.08
2023-01-01T13:29:48.193Z,4.64
2023-01-01T13:30:51.361Z,4.67
2023-01-01T13:31:54.130Z,4.18
2023-01-01T13:32:56.806Z,4.25
2023-01-01T13:33:59.376Z,4.47
2023-01-01T13:35:01.966Z,4.38
2023-01-01T13:36:04.906Z,4.25
2023-01-01T13:37:07.887Z,4.27
2023-01-01T13:38:10.767Z,4.12
2023-01-01T13:39:13.654Z,4.25
2023-01-01T13:40:16.513Z,4.62
2023-01-01T13:41:19.720Z,4.55
2023-01-01T13:42:22.823Z,4.58
2023-01-01T13:43:25.875Z,4.72
2023-01-01T13:44:28.645Z,4.69
2023-01-01T13:46:09.877Z,4.53
2023-01-01T13:46:35.853Z,4.14
2023-01-01T13:47:38.588Z,4.32
2023-01-01T13:48:41.268Z,3.91
2023-01-01T13:49:44.025Z,4.01
2023-01-01T13:50:46.594Z,3.91
2023-01-01T13:52:06.942Z,4.40
2023-01-01T13:52:53.874Z,4.73
2023-01-01T13:53:56.457Z,5.01
2023-01-01T13:54:59.015Z,4.28
2023-01-01T13:56:01.583Z,4.28
2023-01-01T13:57:04.575Z,4.49
2023-01-01T13:58:07.342Z,4.29
2023-01-01T13:59:10.018Z,4.70
2023-01-01T14:00:13.022Z,4.41
2023-01-01T14:01:15.779Z,3.99
2023-01-01T14:02:18.862Z,4.07
2023-01-01T14:03:21.711Z,4.45
2023-01-01T14:04:24.393Z,4.31
2023-01-01T14:05:27.357Z,4.04
2023-01-01T14:06:30.116Z,3.98
2023-01-01T14:07:50.668Z,4.08
2023-01-01T14:08:37.634Z,4.23
2023-01-01T14:09:40.513Z,4.05
2023-01-01T14:10:43.257Z,4.26
2023-01-01T14:11:46.156Z,4.42
2023-01-01T14:12:49.420Z,3.92
2023-01-01T14:13:52.397Z,4.15
2023-01-01T14:14:55.395Z,4.09
2023-01-01T14:15:58.305Z,4.03
2023-01-01T14:17:01.283Z,4.21
2023-01-01T14:18:04.338Z,4.56
2023-01-01T14:19:11.253Z,4.53
2023-01-01T14:20:11.377Z,4.39
2023-01-01T14:21:14.154Z,4.37
2023-01-01T14:22:17.138Z,3.93
2023-01-01T14:23:20.315Z,3.72
2023-01-01T14:24:23.036Z,4.32
2023-01-01T14:25:26.062Z,4.03
2023-01-01T14:26:29.050Z,4.33
2023-01-01T14:27:31.975Z,4.36